Terminal Aerodrome Forecast
Issued by NWS Topeka, KS

Home | Current Version | Previous Version | Text Only | Print | Product List | Glossary Off
Versions: 1 2 3 4 5 6 7 8 9 10 11 12 13 14

000
FTUS43 KTOP 071720
TAFTOP
TAF
KTOP 071720Z 0718/0818 35007KT 5SM -SN OVC040
      TEMPO 0718/0719 1 1/2SM -SN OVC025
     FM072300 32008KT P6SM BKN080
     FM080300 31009KT P6SM SCT200=

USA.gov is the U.S. government's official web portal to all federal, state and local government web resources and services.